createdAt,value
2018-12-07T00:00:38.780Z,28.17
2018-12-07T00:03:06.027Z,17.33
2018-12-07T00:05:33.081Z,20.33
2018-12-07T00:08:00.234Z,16.70
2018-12-07T00:10:27.278Z,16.00
2018-12-07T00:12:54.279Z,18.67
2018-12-07T00:15:21.476Z,18.67
2018-12-07T00:17:48.534Z,13.13
2018-12-07T00:20:15.572Z,20.27
2018-12-07T00:22:42.620Z,15.73
2018-12-07T00:25:09.675Z,17.50
2018-12-07T00:27:36.717Z,14.33
2018-12-07T00:30:03.766Z,19.00
2018-12-07T00:32:30.821Z,11.63
2018-12-07T00:34:57.863Z,13.60
2018-12-07T00:37:24.910Z,20.10
2018-12-07T00:39:51.963Z,12.00
2018-12-07T00:42:19.008Z,13.53
2018-12-07T00:44:46.057Z,13.10
2018-12-07T00:47:13.110Z,16.10
2018-12-07T00:49:40.104Z,17.63
2018-12-07T00:52:08.333Z,12.53
2018-12-07T00:54:37.425Z,17.87
2018-12-07T00:57:04.479Z,14.93
2018-12-07T00:59:32.754Z,19.97
2018-12-07T01:01:59.799Z,15.63
2018-12-07T01:04:26.854Z,16.00
2018-12-07T01:06:53.912Z,13.70
2018-12-07T01:09:20.945Z,12.37
2018-12-07T01:11:47.999Z,11.37
2018-12-07T01:14:14.942Z,12.17
2018-12-07T01:16:41.994Z,12.60
2018-12-07T01:19:09.038Z,9.60
2018-12-07T01:24:09.284Z,9.57
2018-12-07T01:26:36.328Z,12.47
2018-12-07T01:29:03.379Z,11.20
2018-12-07T01:31:30.431Z,13.67
2018-12-07T01:33:57.473Z,11.13
2018-12-07T01:36:24.524Z,12.27
2018-12-07T01:38:51.468Z,10.70
2018-12-07T01:41:19.232Z,12.90
2018-12-07T01:43:46.280Z,10.77
2018-12-07T01:46:13.337Z,11.73
2018-12-07T01:48:40.376Z,13.33
2018-12-07T01:51:07.329Z,11.03
2018-12-07T01:53:34.270Z,11.70
2018-12-07T01:56:01.324Z,12.80
2018-12-07T01:58:28.320Z,13.63
2018-12-07T02:00:55.316Z,10.10
2018-12-07T02:03:22.360Z,10.27
2018-12-07T02:05:50.234Z,11.73
2018-12-07T02:08:17.278Z,8.37
2018-12-07T02:10:44.325Z,10.10
2018-12-07T02:13:11.381Z,8.97
2018-12-07T02:15:39.145Z,9.57
2018-12-07T02:18:06.191Z,9.63
2018-12-07T02:20:33.237Z,9.33
2018-12-07T02:23:00.292Z,13.40
2018-12-07T02:25:27.334Z,10.73
2018-12-07T02:27:59.400Z,10.27
2018-12-07T02:30:27.936Z,11.60
2018-12-07T02:33:12.386Z,9.73
2018-12-07T02:35:57.737Z,12.10
2018-12-07T02:38:24.766Z,10.60
2018-12-07T02:40:51.821Z,9.87
2018-12-07T02:43:18.863Z,9.53
2018-12-07T02:45:45.815Z,11.43
2018-12-07T02:48:12.856Z,9.73
2018-12-07T02:50:39.905Z,8.63
2018-12-07T02:53:06.961Z,9.73
2018-12-07T02:55:35.744Z,10.27
2018-12-07T02:58:02.796Z,10.13
2018-12-07T03:00:29.841Z,12.37
2018-12-07T03:02:57.916Z,10.40
2018-12-07T03:05:24.867Z,11.80
2018-12-07T03:07:53.446Z,10.07
2018-12-07T03:10:22.440Z,10.30
2018-12-07T03:12:49.697Z,9.23
2018-12-07T03:15:16.703Z,11.93
2018-12-07T03:17:43.691Z,10.60
2018-12-07T03:20:11.160Z,10.60
2018-12-07T03:22:38.194Z,11.83
2018-12-07T03:25:05.147Z,9.73
2018-12-07T03:27:32.910Z,9.27
2018-12-07T03:30:00.157Z,8.97
2018-12-07T03:32:27.212Z,10.13
2018-12-07T03:34:54.362Z,8.63
2018-12-07T03:37:23.249Z,9.43
2018-12-07T03:39:50.296Z,8.97
2018-12-07T03:42:17.350Z,9.27
2018-12-07T03:44:44.760Z,9.80
2018-12-07T03:47:11.750Z,11.03
2018-12-07T03:49:38.803Z,10.17
2018-12-07T03:52:06.265Z,9.87
2018-12-07T03:54:33.305Z,12.80
2018-12-07T03:57:00.353Z,9.13
2018-12-07T03:59:27.408Z,8.30
2018-12-07T04:01:54.349Z,9.53
2018-12-07T04:04:21.417Z,9.40
2018-12-07T04:06:48.448Z,7.97
2018-12-07T04:09:36.541Z,6.20
2018-12-07T04:12:23.623Z,7.97
2018-12-07T04:14:51.574Z,9.20
2018-12-07T04:17:41.241Z,9.33
2018-12-07T04:20:27.562Z,10.07
2018-12-07T04:22:56.867Z,9.67
2018-12-07T04:25:23.909Z,10.03
2018-12-07T04:27:50.954Z,13.77
2018-12-07T04:30:18.722Z,10.87
2018-12-07T04:32:45.773Z,11.20
2018-12-07T04:35:12.820Z,7.20
2018-12-07T04:37:39.867Z,7.93
2018-12-07T04:40:06.922Z,10.43
2018-12-07T04:42:34.928Z,6.83
2018-12-07T04:45:01.933Z,8.23
2018-12-07T04:47:28.985Z,8.47
2018-12-07T04:49:56.030Z,8.37
2018-12-07T04:52:23.082Z,10.73
2018-12-07T04:54:50.842Z,8.40
2018-12-07T04:57:17.896Z,6.90
2018-12-07T04:59:44.943Z,8.10
2018-12-07T05:02:12.296Z,8.63
2018-12-07T05:04:39.351Z,7.47
2018-12-07T05:07:06.291Z,8.80
2018-12-07T05:09:34.057Z,8.70
2018-12-07T05:12:01.111Z,10.77
2018-12-07T05:14:28.152Z,8.83
2018-12-07T05:16:55.509Z,9.97
2018-12-07T05:19:22.659Z,13.47
2018-12-07T05:21:49.716Z,9.10
2018-12-07T05:24:16.912Z,11.30
2018-12-07T05:26:44.730Z,10.67
2018-12-07T05:29:11.779Z,11.97
2018-12-07T05:31:39.137Z,10.57
2018-12-07T05:34:06.179Z,15.13
2018-12-07T05:36:33.183Z,8.40
2018-12-07T05:39:00.174Z,11.93
2018-12-07T05:41:27.226Z,13.33
2018-12-07T05:43:55.090Z,14.70
2018-12-07T05:46:22.145Z,8.13
2018-12-07T05:48:49.187Z,11.10
2018-12-07T05:51:16.138Z,7.17
2018-12-07T05:53:43.182Z,9.47
2018-12-07T05:56:10.230Z,9.57
2018-12-07T05:58:37.284Z,13.67
2018-12-07T06:01:04.327Z,12.30
2018-12-07T06:03:31.375Z,10.27
2018-12-07T06:05:58.369Z,9.13
2018-12-07T06:08:25.370Z,7.03
2018-12-07T06:10:52.423Z,7.47
2018-12-07T06:13:19.371Z,10.07
2018-12-07T06:15:46.418Z,13.03
2018-12-07T06:18:13.461Z,10.77
2018-12-07T06:20:40.514Z,9.90
2018-12-07T06:23:07.564Z,12.60
2018-12-07T06:25:34.504Z,10.00
2018-12-07T06:28:23.859Z,9.70
2018-12-07T06:31:09.508Z,8.13
2018-12-07T06:33:36.507Z,8.67
2018-12-07T06:36:03.561Z,15.13
2018-12-07T06:38:31.731Z,12.03
2018-12-07T06:41:00.627Z,10.83
2018-12-07T06:43:27.673Z,9.43
2018-12-07T06:45:54.672Z,17.13
2018-12-07T06:48:22.279Z,25.60
2018-12-07T06:50:49.328Z,21.00
2018-12-07T06:53:16.382Z,24.33
2018-12-07T06:55:44.960Z,16.03
2018-12-07T06:58:12.010Z,16.97
2018-12-07T07:00:39.006Z,15.27
2018-12-07T07:03:07.492Z,14.00
2018-12-07T07:05:34.487Z,13.77
2018-12-07T07:08:01.536Z,13.77
2018-12-07T07:10:28.942Z,12.33
2018-12-07T07:12:55.940Z,16.97
2018-12-07T07:15:22.989Z,10.53
2018-12-07T07:17:50.053Z,13.03
2018-12-07T07:20:17.195Z,11.93
2018-12-07T07:22:44.238Z,9.43
2018-12-07T07:25:11.288Z,11.53
2018-12-07T07:27:38.753Z,11.00
2018-12-07T07:30:05.800Z,14.83
2018-12-07T07:32:32.839Z,12.40
2018-12-07T07:34:59.887Z,11.90
2018-12-07T07:37:26.946Z,13.80
2018-12-07T07:39:53.936Z,15.97
2018-12-07T07:42:20.936Z,16.37
2018-12-07T07:44:47.979Z,14.03
2018-12-07T07:47:15.027Z,12.97
2018-12-07T07:49:42.082Z,15.57
2018-12-07T07:52:09.125Z,15.37
2018-12-07T07:54:36.196Z,13.37
2018-12-07T07:57:03.227Z,16.13
2018-12-07T07:59:33.239Z,12.93
2018-12-07T08:02:00.492Z,13.30
2018-12-07T08:04:27.609Z,11.40
2018-12-07T08:07:12.078Z,13.00
2018-12-07T08:09:39.149Z,12.30
2018-12-07T08:12:06.199Z,10.33
2018-12-07T08:14:33.251Z,11.63
2018-12-07T08:17:00.296Z,12.50
2018-12-07T08:19:27.753Z,10.17
2018-12-07T08:21:54.802Z,11.10
2018-12-07T08:24:21.860Z,10.07
2018-12-07T08:26:48.897Z,12.50
2018-12-07T08:29:15.946Z,11.40
2018-12-07T08:31:42.893Z,12.17
2018-12-07T08:34:09.941Z,15.37
2018-12-07T08:36:36.995Z,14.57
2018-12-07T08:39:04.145Z,15.93
2018-12-07T08:41:31.192Z,17.27
2018-12-07T08:43:58.237Z,14.00
2018-12-07T08:46:25.295Z,9.77
2018-12-07T08:48:52.335Z,14.20
2018-12-07T08:51:19.383Z,17.10
2018-12-07T08:53:46.437Z,20.80
2018-12-07T08:56:13.481Z,17.03
2018-12-07T08:58:40.528Z,14.73
2018-12-07T09:01:07.524Z,19.03
2018-12-07T09:03:36.366Z,13.70
2018-12-07T09:06:04.234Z,15.53
2018-12-07T09:08:31.283Z,18.23
2018-12-07T09:10:58.278Z,13.10
2018-12-07T09:13:25.278Z,15.40
2018-12-07T09:15:52.331Z,15.00
2018-12-07T09:18:19.373Z,11.70
2018-12-07T09:20:53.681Z,11.67
2018-12-07T09:23:13.478Z,18.37
2018-12-07T09:25:40.522Z,10.90
2018-12-07T09:28:07.571Z,14.40
2018-12-07T09:30:34.513Z,6.17
2018-12-07T09:33:01.564Z,13.77
2018-12-07T09:35:28.616Z,12.63
2018-12-07T09:37:55.662Z,10.23
2018-12-07T09:40:23.426Z,9.40
2018-12-07T09:42:50.381Z,9.87
2018-12-07T09:45:17.624Z,13.37
2018-12-07T09:47:44.775Z,9.03
2018-12-07T09:50:11.877Z,8.37
2018-12-07T09:52:38.877Z,9.13
2018-12-07T09:55:05.923Z,8.43
2018-12-07T09:57:48.282Z,8.60
2018-12-07T10:00:31.785Z,5.77
2018-12-07T10:02:58.811Z,6.20
2018-12-07T10:05:25.861Z,5.97
2018-12-07T10:07:53.527Z,6.17
2018-12-07T10:10:20.572Z,7.13
2018-12-07T10:12:48.341Z,6.17
2018-12-07T10:15:15.389Z,8.67
2018-12-07T10:17:42.441Z,5.77
2018-12-07T10:20:09.759Z,5.53
2018-12-07T10:22:37.924Z,8.17
2018-12-07T10:25:03.894Z,7.40
2018-12-07T10:27:31.599Z,6.30
2018-12-07T10:29:58.599Z,6.90
2018-12-07T10:32:25.658Z,4.43
2018-12-07T10:34:54.366Z,7.03
2018-12-07T10:37:21.384Z,6.70
2018-12-07T10:39:48.431Z,6.67
2018-12-07T10:42:15.794Z,9.60
2018-12-07T10:44:42.837Z,10.37
2018-12-07T10:47:09.883Z,8.67
2018-12-07T10:49:36.938Z,8.33
2018-12-07T10:55:03.496Z,10.77
2018-12-07T10:57:30.543Z,8.83
2018-12-07T10:59:57.589Z,10.03
2018-12-07T11:02:30.883Z,9.03
2018-12-07T11:05:03.973Z,10.77
2018-12-07T11:07:36.961Z,9.17
2018-12-07T11:10:09.846Z,15.07
2018-12-07T11:12:42.685Z,10.77
2018-12-07T11:15:24.526Z,9.37
2018-12-07T11:17:57.719Z,9.13
2018-12-07T11:20:31.320Z,9.83
2018-12-07T11:23:04.213Z,9.60
2018-12-07T11:25:37.093Z,10.07
2018-12-07T11:28:09.881Z,10.37
2018-12-07T11:30:42.658Z,8.47
2018-12-07T11:33:15.646Z,9.87
2018-12-07T11:35:42.699Z,9.50
2018-12-07T11:38:09.744Z,11.60
2018-12-07T11:40:36.792Z,10.83
2018-12-07T11:43:03.845Z,9.87
2018-12-07T11:45:30.841Z,10.07
2018-12-07T11:47:57.840Z,13.37
2018-12-07T11:50:24.883Z,10.37
2018-12-07T11:52:51.932Z,10.80
2018-12-07T11:55:18.880Z,10.00
2018-12-07T11:57:45.926Z,9.97
2018-12-07T12:00:13.693Z,10.47
2018-12-07T12:02:40.745Z,11.80
2018-12-07T12:05:07.949Z,11.70
2018-12-07T12:07:34.943Z,12.23
2018-12-07T12:10:01.989Z,10.87
2018-12-07T12:12:29.349Z,13.67
2018-12-07T12:14:56.395Z,14.07
2018-12-07T12:17:23.442Z,13.10
2018-12-07T12:19:50.695Z,12.97
2018-12-07T12:22:17.744Z,12.30
2018-12-07T12:24:45.919Z,11.30
2018-12-07T12:27:13.376Z,11.60
2018-12-07T12:29:40.426Z,15.43
2018-12-07T12:32:07.478Z,13.67
2018-12-07T12:34:34.524Z,14.00
2018-12-07T12:37:01.571Z,19.97
2018-12-07T12:39:28.624Z,16.30
2018-12-07T12:41:55.670Z,17.03
2018-12-07T12:44:22.716Z,16.20
2018-12-07T12:46:49.771Z,18.13
2018-12-07T12:49:16.813Z,17.17
2018-12-07T12:51:46.529Z,16.00
2018-12-07T12:54:13.573Z,14.83
2018-12-07T12:56:40.621Z,13.83
2018-12-07T12:59:07.725Z,15.67
2018-12-07T13:01:34.720Z,16.23
2018-12-07T13:04:01.767Z,16.03
2018-12-07T13:06:29.025Z,17.60
2018-12-07T13:08:56.078Z,15.37
2018-12-07T13:11:24.864Z,14.00
2018-12-07T13:13:52.120Z,13.40
2018-12-07T13:16:19.177Z,14.37
2018-12-07T13:18:46.316Z,17.43
2018-12-07T13:21:13.360Z,17.10
2018-12-07T13:23:40.309Z,16.37
2018-12-07T13:26:07.355Z,17.20
2018-12-07T13:28:34.353Z,19.23
2018-12-07T13:31:01.350Z,18.30
2018-12-07T13:33:28.402Z,17.27
2018-12-07T13:35:55.399Z,15.93
2018-12-07T13:38:23.417Z,19.40
2018-12-07T13:40:50.661Z,16.83
2018-12-07T13:43:17.650Z,19.67
2018-12-07T13:45:44.759Z,20.20
2018-12-07T13:48:12.038Z,20.83
2018-12-07T13:50:40.919Z,19.37
2018-12-07T13:53:09.596Z,17.00
2018-12-07T13:55:38.396Z,19.27
2018-12-07T13:58:05.482Z,18.77
2018-12-07T14:00:32.595Z,18.17
2018-12-07T14:03:00.803Z,20.90
2018-12-07T14:05:49.029Z,18.57
2018-12-07T14:08:16.185Z,22.40
2018-12-07T14:10:43.204Z,21.30
2018-12-07T14:13:10.457Z,19.70
2018-12-07T14:15:37.484Z,23.83
2018-12-07T14:18:04.817Z,23.63
2018-12-07T14:20:32.832Z,23.10
2018-12-07T14:23:00.026Z,28.43
2018-12-07T14:25:28.615Z,24.33
2018-12-07T14:27:54.308Z,25.00
2018-12-07T14:30:21.148Z,28.03
2018-12-07T14:32:48.910Z,27.40
2018-12-07T14:35:15.985Z,26.43
2018-12-07T14:37:43.096Z,31.03
2018-12-07T14:40:10.165Z,29.77
2018-12-07T14:42:37.361Z,30.27
2018-12-07T14:45:04.449Z,28.30
2018-12-07T14:47:31.446Z,31.57
2018-12-07T14:49:58.559Z,33.80
2018-12-07T14:52:25.728Z,36.23
2018-12-07T14:54:53.223Z,31.57
2018-12-07T14:57:20.367Z,32.40
2018-12-07T14:59:47.505Z,30.07
2018-12-07T15:02:14.470Z,34.57
2018-12-07T15:04:41.620Z,32.17
2018-12-07T15:07:08.637Z,32.40
2018-12-07T15:09:35.740Z,30.70
2018-12-07T15:12:02.948Z,30.80
2018-12-07T15:14:30.039Z,35.27
2018-12-07T15:16:57.162Z,37.30
2018-12-07T15:19:24.159Z,38.30
2018-12-07T15:21:51.256Z,39.83
2018-12-07T15:24:18.292Z,34.70
2018-12-07T15:26:45.605Z,37.67
2018-12-07T15:29:12.530Z,37.83
2018-12-07T15:31:39.611Z,37.20
2018-12-07T15:34:06.682Z,37.20
2018-12-07T15:36:33.711Z,40.63
2018-12-07T15:39:00.815Z,35.73
2018-12-07T15:41:28.538Z,37.93
2018-12-07T15:43:55.777Z,42.03
2018-12-07T15:46:43.999Z,42.93
2018-12-07T15:49:24.962Z,37.50
2018-12-07T15:51:52.017Z,37.77
2018-12-07T15:54:19.373Z,41.83
2018-12-07T15:56:46.202Z,41.57
2018-12-07T15:59:13.194Z,45.13
2018-12-07T16:01:42.380Z,46.10
2018-12-07T16:04:09.364Z,49.00
2018-12-07T16:06:40.910Z,51.03
2018-12-07T16:09:07.972Z,54.43
2018-12-07T16:11:54.950Z,59.30
2018-12-07T16:14:40.815Z,58.17
2018-12-07T16:17:07.792Z,59.83
2018-12-07T16:19:35.159Z,57.13
2018-12-07T16:22:03.017Z,63.07
2018-12-07T16:24:30.079Z,61.80
2018-12-07T16:26:57.228Z,72.90
2018-12-07T16:29:24.273Z,69.57
2018-12-07T16:31:51.349Z,68.63
2018-12-07T16:34:18.351Z,62.07
2018-12-07T16:36:45.427Z,71.87
2018-12-07T16:39:12.534Z,66.57
2018-12-07T16:41:39.681Z,56.90
2018-12-07T16:44:06.780Z,64.60
2018-12-07T16:46:33.871Z,64.90
2018-12-07T16:49:00.904Z,62.80
2018-12-07T16:51:28.144Z,63.87
2018-12-07T16:53:55.160Z,58.47
2018-12-07T16:56:22.122Z,68.77
2018-12-07T16:58:49.320Z,151.67
2018-12-07T17:01:16.514Z,112.00
2018-12-07T17:03:43.560Z,574.93
2018-12-07T17:06:10.820Z,344.87
2018-12-07T17:08:37.811Z,193.83
2018-12-07T17:11:04.835Z,440.27
2018-12-07T17:13:31.990Z,123.00
2018-12-07T17:15:59.301Z,58.13
2018-12-07T17:18:26.414Z,48.10
2018-12-07T17:20:53.624Z,53.37
2018-12-07T17:23:21.054Z,74.50
2018-12-07T17:25:48.268Z,54.87
2018-12-07T17:28:15.238Z,53.90
2018-12-07T17:30:42.442Z,55.57
2018-12-07T17:33:13.903Z,57.93
2018-12-07T17:35:42.494Z,64.93
2018-12-07T17:38:14.230Z,52.93
2018-12-07T17:40:41.772Z,101.67
2018-12-07T17:43:08.993Z,141.77
2018-12-07T17:45:36.032Z,136.33
2018-12-07T17:48:03.061Z,170.77
2018-12-07T17:50:50.293Z,92.23
2018-12-07T17:53:17.582Z,88.30
2018-12-07T17:55:44.799Z,145.93
2018-12-07T17:58:15.003Z,54.83
2018-12-07T18:00:42.166Z,40.10
2018-12-07T18:03:09.170Z,65.00
2018-12-07T18:05:36.214Z,51.60
2018-12-07T18:08:29.469Z,52.20
2018-12-07T18:11:18.769Z,30.83
2018-12-07T18:13:58.835Z,33.43
2018-12-07T18:16:26.952Z,53.27
2018-12-07T18:18:54.290Z,31.03
2018-12-07T18:21:21.413Z,39.30
2018-12-07T18:23:48.660Z,26.10
2018-12-07T18:26:15.590Z,33.90
2018-12-07T18:28:42.768Z,32.20
2018-12-07T18:31:09.801Z,29.10
2018-12-07T18:33:37.702Z,29.97
2018-12-07T18:36:04.808Z,27.23
2018-12-07T18:38:31.905Z,33.67
2018-12-07T18:40:59.114Z,36.27
2018-12-07T18:43:26.238Z,29.40
2018-12-07T18:45:54.271Z,34.30
2018-12-07T18:48:21.613Z,29.23
2018-12-07T18:50:48.542Z,23.73
2018-12-07T18:53:15.645Z,24.47
2018-12-07T18:55:42.671Z,27.13
2018-12-07T18:58:12.369Z,24.70
2018-12-07T19:00:39.701Z,21.53
2018-12-07T19:03:06.721Z,30.27
2018-12-07T19:05:36.148Z,32.23
2018-12-07T19:08:03.322Z,28.17
2018-12-07T19:10:30.450Z,43.63
2018-12-07T19:12:57.663Z,49.27
2018-12-07T19:15:25.063Z,63.00
2018-12-07T19:17:52.292Z,52.70
2018-12-07T19:20:21.686Z,22.23
2018-12-07T19:22:50.362Z,25.13
2018-12-07T19:25:17.417Z,31.80
2018-12-07T19:27:44.498Z,50.63
2018-12-07T19:30:14.830Z,53.03
2018-12-07T19:32:40.817Z,35.90
2018-12-07T19:35:07.829Z,56.47
2018-12-07T19:37:35.120Z,46.00
2018-12-07T19:40:02.658Z,43.00
2018-12-07T19:42:29.552Z,47.53
2018-12-07T19:44:56.640Z,60.97
2018-12-07T19:47:23.765Z,75.27
2018-12-07T19:50:05.504Z,81.87
2018-12-07T19:52:32.309Z,63.83
2018-12-07T19:54:59.445Z,63.20
2018-12-07T19:57:26.432Z,58.23
2018-12-07T19:59:53.618Z,71.20
2018-12-07T20:02:21.482Z,50.00
2018-12-07T20:04:48.507Z,49.37
2018-12-07T20:07:15.509Z,43.47
2018-12-07T20:09:42.785Z,50.53
2018-12-07T20:12:09.745Z,46.13
2018-12-07T20:14:37.051Z,45.60
2018-12-07T20:17:04.295Z,48.17
2018-12-07T20:19:31.457Z,50.83
2018-12-07T20:21:58.521Z,54.87
2018-12-07T20:24:25.260Z,57.43
2018-12-07T20:26:52.479Z,56.43
2018-12-07T20:29:19.342Z,57.77
2018-12-07T20:31:46.437Z,61.13
2018-12-07T20:34:13.600Z,45.97
2018-12-07T20:36:40.734Z,54.93
2018-12-07T20:39:07.741Z,59.97
2018-12-07T20:41:34.883Z,52.07
2018-12-07T20:44:01.947Z,52.07
2018-12-07T20:46:29.207Z,57.67
2018-12-07T20:48:56.167Z,48.43
2018-12-07T20:51:23.211Z,49.07
2018-12-07T20:53:50.295Z,60.07
2018-12-07T20:56:17.390Z,58.77
2018-12-07T20:58:44.614Z,55.03
2018-12-07T21:01:11.611Z,56.73
2018-12-07T21:03:47.590Z,57.60
2018-12-07T21:06:36.063Z,57.20
2018-12-07T21:09:06.821Z,50.90
2018-12-07T21:11:36.667Z,57.07
2018-12-07T21:14:04.342Z,49.77
2018-12-07T21:16:49.661Z,56.37
2018-12-07T21:19:18.795Z,53.03
2018-12-07T21:21:45.949Z,49.83
2018-12-07T21:24:13.076Z,49.83
2018-12-07T21:26:40.135Z,45.70
2018-12-07T21:29:07.195Z,50.97
2018-12-07T21:31:34.405Z,46.27
2018-12-07T21:34:05.404Z,47.80
2018-12-07T21:36:35.727Z,54.97
2018-12-07T21:39:02.756Z,49.03
2018-12-07T21:41:29.859Z,53.70
2018-12-07T21:43:57.271Z,57.03
2018-12-07T21:46:24.823Z,46.73
2018-12-07T21:48:51.867Z,46.30
2018-12-07T21:51:22.944Z,44.63
2018-12-07T21:53:50.007Z,48.50
2018-12-07T21:56:17.315Z,46.77
2018-12-07T21:58:44.057Z,51.13
2018-12-07T22:01:11.402Z,45.03
2018-12-07T22:03:38.373Z,55.07
2018-12-07T22:06:05.636Z,53.40
2018-12-07T22:08:32.668Z,50.63
2018-12-07T22:10:59.914Z,49.50
2018-12-07T22:13:26.930Z,47.47
2018-12-07T22:15:53.907Z,61.87
2018-12-07T22:18:21.142Z,46.93
2018-12-07T22:20:48.185Z,44.90
2018-12-07T22:23:15.338Z,43.83
2018-12-07T22:25:42.255Z,45.33
2018-12-07T22:28:09.588Z,51.20
2018-12-07T22:30:39.320Z,41.60
2018-12-07T22:33:06.297Z,43.43
2018-12-07T22:35:33.670Z,43.03
2018-12-07T22:38:01.667Z,49.20
2018-12-07T22:40:30.412Z,45.43
2018-12-07T22:42:57.503Z,43.77
2018-12-07T22:45:26.400Z,44.60
2018-12-07T22:47:53.434Z,45.17
2018-12-07T22:50:20.424Z,43.37
2018-12-07T22:52:47.884Z,40.03
2018-12-07T22:55:14.881Z,42.70
2018-12-07T22:57:41.877Z,34.57
2018-12-07T23:00:10.816Z,33.83
2018-12-07T23:02:37.813Z,39.73
2018-12-07T23:05:04.864Z,43.40
2018-12-07T23:07:32.017Z,43.47
2018-12-07T23:09:59.058Z,43.73
2018-12-07T23:12:26.107Z,37.77
2018-12-07T23:14:58.005Z,45.17
2018-12-07T23:17:25.120Z,46.37
2018-12-07T23:19:52.167Z,44.07
2018-12-07T23:22:20.084Z,48.13
2018-12-07T23:24:47.085Z,50.63
2018-12-07T23:27:14.138Z,47.67
2018-12-07T23:29:41.182Z,47.13
2018-12-07T23:32:08.229Z,48.77
2018-12-07T23:34:35.245Z,42.23
2018-12-07T23:37:02.327Z,45.67
2018-12-07T23:39:30.297Z,45.13
2018-12-07T23:41:57.351Z,46.03
2018-12-07T23:44:24.346Z,45.20
2018-12-07T23:46:51.446Z,53.43
2018-12-07T23:49:18.498Z,52.63
2018-12-07T23:51:45.539Z,43.97
2018-12-07T23:54:12.587Z,43.37
2018-12-07T23:56:39.641Z,44.93
2018-12-07T23:59:06.685Z,31.80
